Hovedside
METAR-TAF:

METAR-TAF

Lufthavner :

Oljeplattform

Norne Fpso, Norge

breddegrad: 66-01-48N, lengdegrad: 008-04-48E, høyde over havet: 10 m

Gjeldene værobservasjon

Denne rapporten ble laget for 27 minutter siden, klokken 18:20 UTC
Vind 21 kt fra Vest
Temperatur 7°C
Luftfuktighet 81%
Trykk 1034 hPa
Sikt 10 km eller mer

METAR: ENNE 191820Z AUTO 26021KT 9999NDV OVC013/// 07/04 Q1034 W///S4

Tid: 19:47 (18:47 UTC)

Varsel

Denne rapporten ble laget for 4 timer og 47 minutter siden, klokken 14:00 UTC
Varsel gyldig fra 19. klokken 15 UTC til 19. klokken 18 UTC
Vind 22 kt fra Vest-sørvest
Sikt 10 km eller mer
Brutte skyer i en høyde av 1800 ft
Midlertidig
fra 19. klokken 15 UTC til 19. klokken 18 UTC
Brutte skyer i en høyde av 1200 ft

TAF: ENNE 191400Z 1915/1918 24022KT 9999 BKN018 TEMPO 1915/1918 BKN012

Værobservasjoner og værvarsel for over 4000 flyplasser (METAR- og TAF-rapporter).

Tilgjengelige stasjoner er representert av de røde og gule prikkene på kartet.

Hold musepekeren over prikken for å se navnet på stasjonen.

Klikk så for å se værobservasjoner og -varsler.

For å forandre kartet kan du klikke på den grønne knappen med svart kryss for å zoome inn, på den grønne knappen med strek for å zoome ut, eller på de grønne pilene for å se tilstøtende kart.


METAR-TAF: